createdAt,value
2018-01-10T00:00:58.610Z,15.00
2018-01-10T00:01:58.584Z,16.30
2018-01-10T00:02:58.556Z,15.70
2018-01-10T00:03:58.532Z,14.50
2018-01-10T00:04:58.519Z,15.80
2018-01-10T00:05:58.488Z,15.20
2018-01-10T00:06:58.474Z,15.10
2018-01-10T00:07:58.451Z,15.30
2018-01-10T00:08:58.425Z,15.20
2018-01-10T00:09:58.398Z,15.10
2018-01-10T00:10:58.383Z,14.90
2018-01-10T00:11:58.355Z,15.50
2018-01-10T00:12:58.337Z,15.10
2018-01-10T00:13:58.307Z,15.00
2018-01-10T00:14:58.304Z,15.20
2018-01-10T00:15:58.265Z,15.50
2018-01-10T00:16:58.242Z,15.20
2018-01-10T00:17:58.226Z,15.00
2018-01-10T00:18:58.197Z,15.40
2018-01-10T00:19:58.184Z,14.80
2018-01-10T00:20:58.151Z,14.80
2018-01-10T00:21:58.137Z,15.00
2018-01-10T00:22:58.117Z,14.50
2018-01-10T00:23:58.094Z,15.20
2018-01-10T00:24:58.063Z,14.90
2018-01-10T00:25:58.051Z,15.70
2018-01-10T00:26:58.098Z,16.20
2018-01-10T00:27:57.994Z,15.60
2018-01-10T00:28:57.973Z,15.20
2018-01-10T00:29:57.960Z,15.20
2018-01-10T00:30:57.929Z,15.60
2018-01-10T00:31:57.909Z,14.90
2018-01-10T00:32:57.886Z,15.40
2018-01-10T00:33:57.877Z,14.50
2018-01-10T00:34:57.842Z,14.80
2018-01-10T00:35:57.821Z,15.50
2018-01-10T00:36:57.800Z,15.10
2018-01-10T00:37:57.791Z,14.20
2018-01-10T00:38:57.765Z,14.80
2018-01-10T00:39:57.732Z,15.20
2018-01-10T00:40:57.709Z,13.60
2018-01-10T00:41:57.688Z,15.30
2018-01-10T00:42:57.669Z,15.00
2018-01-10T00:43:57.644Z,15.10
2018-01-10T00:44:57.621Z,14.50
2018-01-10T00:45:57.599Z,13.90
2018-01-10T00:46:57.578Z,15.50
2018-01-10T00:47:57.565Z,13.50
2018-01-10T00:48:57.628Z,14.60
2018-01-10T00:49:57.512Z,14.30
2018-01-10T00:50:57.489Z,14.70
2018-01-10T00:51:57.480Z,14.50
2018-01-10T00:52:57.446Z,15.40
2018-01-10T00:53:57.422Z,15.20
2018-01-10T00:54:57.401Z,15.10
2018-01-10T00:55:57.378Z,14.10
2018-01-10T00:56:57.358Z,15.30
2018-01-10T00:57:57.336Z,15.20
2018-01-10T00:58:57.322Z,15.00
2018-01-10T00:59:57.349Z,15.10
2018-01-10T01:00:57.268Z,15.40
2018-01-10T01:01:57.249Z,15.80
2018-01-10T01:02:57.279Z,15.20
2018-01-10T01:03:57.205Z,15.70
2018-01-10T01:04:57.196Z,14.00
2018-01-10T01:05:57.163Z,15.00
2018-01-10T01:06:57.139Z,14.80
2018-01-10T01:07:57.115Z,15.50
2018-01-10T01:08:57.098Z,14.50
2018-01-10T01:09:57.074Z,14.40
2018-01-10T01:10:57.054Z,14.90
2018-01-10T01:11:57.027Z,14.20
2018-01-10T01:12:57.014Z,15.00
2018-01-10T01:13:56.985Z,15.90
2018-01-10T01:14:56.968Z,14.40
2018-01-10T01:15:56.948Z,14.30
2018-01-10T01:16:56.919Z,14.10
2018-01-10T01:17:56.896Z,15.60
2018-01-10T01:18:56.893Z,14.30
2018-01-10T01:19:56.858Z,14.40
2018-01-10T01:20:56.829Z,14.10
2018-01-10T01:21:56.923Z,14.10
2018-01-10T01:22:56.786Z,14.60
2018-01-10T01:23:56.770Z,14.90
2018-01-10T01:24:56.745Z,14.10
2018-01-10T01:25:56.732Z,15.00
2018-01-10T01:26:56.697Z,15.50
2018-01-10T01:27:56.675Z,14.60
2018-01-10T01:28:56.653Z,14.50
2018-01-10T01:29:56.631Z,14.90
2018-01-10T01:30:56.611Z,14.10
2018-01-10T01:31:56.641Z,15.10
2018-01-10T01:32:56.573Z,14.70
2018-01-10T01:33:56.545Z,14.50
2018-01-10T01:34:56.520Z,14.80
2018-01-10T01:35:56.503Z,14.70
2018-01-10T01:36:56.482Z,15.70
2018-01-10T01:37:56.458Z,14.90
2018-01-10T01:38:56.436Z,14.20
2018-01-10T01:39:56.421Z,15.50
2018-01-10T01:40:56.396Z,14.30
2018-01-10T01:41:56.370Z,14.00
2018-01-10T01:42:56.345Z,15.50
2018-01-10T01:43:56.334Z,14.90
2018-01-10T01:44:56.302Z,15.10
2018-01-10T01:45:56.284Z,15.20
2018-01-10T01:46:56.262Z,15.80
2018-01-10T01:47:56.250Z,15.90
2018-01-10T01:48:56.214Z,14.60
2018-01-10T01:49:56.193Z,14.90
2018-01-10T01:50:56.174Z,14.70
2018-01-10T01:51:56.153Z,16.40
2018-01-10T01:52:56.129Z,15.30
2018-01-10T01:53:56.108Z,14.90
2018-01-10T01:54:56.090Z,14.90
2018-01-10T01:55:56.063Z,14.70
2018-01-10T01:56:56.041Z,15.50
2018-01-10T01:57:56.023Z,15.50
2018-01-10T01:58:56.001Z,15.30
2018-01-10T01:59:55.978Z,15.00
2018-01-10T02:00:55.958Z,15.80
2018-01-10T02:01:55.937Z,16.70
2018-01-10T02:02:55.912Z,15.50
2018-01-10T02:03:55.894Z,15.40
2018-01-10T02:04:55.880Z,13.90
2018-01-10T02:05:55.849Z,15.00
2018-01-10T02:06:55.829Z,15.60
2018-01-10T02:07:55.808Z,15.00
2018-01-10T02:08:55.784Z,16.10
2018-01-10T02:09:55.768Z,15.30
2018-01-10T02:10:55.750Z,14.40
2018-01-10T02:11:55.722Z,15.40
2018-01-10T02:12:55.698Z,15.50
2018-01-10T02:13:55.698Z,15.40
2018-01-10T02:14:55.658Z,16.00
2018-01-10T02:15:55.638Z,15.90
2018-01-10T02:16:55.651Z,16.00
2018-01-10T02:17:55.595Z,15.90
2018-01-10T02:18:55.571Z,16.00
2018-01-10T02:19:55.559Z,16.10
2018-01-10T02:20:55.531Z,15.40
2018-01-10T02:21:55.508Z,16.90
2018-01-10T02:22:55.487Z,15.60
2018-01-10T02:23:55.465Z,16.40
2018-01-10T02:24:55.444Z,16.50
2018-01-10T02:25:55.425Z,15.70
2018-01-10T02:26:55.421Z,15.50
2018-01-10T02:27:55.381Z,15.60
2018-01-10T02:28:55.363Z,15.10
2018-01-10T02:29:55.338Z,15.80
2018-01-10T02:30:55.321Z,15.40
2018-01-10T02:31:55.294Z,15.60
2018-01-10T02:32:55.274Z,16.10
2018-01-10T02:33:55.258Z,16.20
2018-01-10T02:34:55.225Z,16.20
2018-01-10T02:35:55.209Z,16.40
2018-01-10T02:36:55.187Z,16.10
2018-01-10T02:37:55.167Z,16.50
2018-01-10T02:38:55.153Z,16.70
2018-01-10T02:39:55.126Z,16.50
2018-01-10T02:40:55.102Z,16.20
2018-01-10T02:41:55.103Z,15.30
2018-01-10T02:42:55.066Z,16.00
2018-01-10T02:43:55.038Z,16.10
2018-01-10T02:44:55.017Z,15.90
2018-01-10T02:45:54.998Z,15.90
2018-01-10T02:46:54.985Z,15.40
2018-01-10T02:47:54.954Z,15.70
2018-01-10T02:48:54.944Z,17.00
2018-01-10T02:49:54.917Z,15.90
2018-01-10T02:50:54.895Z,16.00
2018-01-10T02:51:54.870Z,15.90
2018-01-10T02:52:54.851Z,16.40
2018-01-10T02:53:54.827Z,14.80
2018-01-10T02:54:54.806Z,16.60
2018-01-10T02:55:54.783Z,15.90
2018-01-10T02:56:54.764Z,16.40
2018-01-10T02:57:54.744Z,16.60
2018-01-10T02:58:54.721Z,16.20
2018-01-10T02:59:54.700Z,16.10
2018-01-10T03:00:54.679Z,16.00
2018-01-10T03:01:54.654Z,15.70
2018-01-10T03:02:54.635Z,16.10
2018-01-10T03:03:54.612Z,16.80
2018-01-10T03:04:54.594Z,15.60
2018-01-10T03:05:54.574Z,15.90
2018-01-10T03:06:54.552Z,16.00
2018-01-10T03:07:54.529Z,15.80
2018-01-10T03:08:54.605Z,15.70
2018-01-10T03:09:54.483Z,16.80
2018-01-10T03:10:54.469Z,16.60
2018-01-10T03:11:54.549Z,15.90
2018-01-10T03:12:54.420Z,15.90
2018-01-10T03:13:54.398Z,15.60
2018-01-10T03:14:54.381Z,16.00
2018-01-10T03:15:54.363Z,16.60
2018-01-10T03:16:54.333Z,16.50
2018-01-10T03:17:54.312Z,15.90
2018-01-10T03:18:54.290Z,16.80
2018-01-10T03:19:54.268Z,16.20
2018-01-10T03:20:54.255Z,17.20
2018-01-10T03:21:54.227Z,15.70
2018-01-10T03:22:54.209Z,16.20
2018-01-10T03:23:54.182Z,16.20
2018-01-10T03:24:54.162Z,16.20
2018-01-10T03:25:54.145Z,16.00
2018-01-10T03:26:54.118Z,16.30
2018-01-10T03:27:54.096Z,15.80
2018-01-10T03:28:54.078Z,15.60
2018-01-10T03:29:54.056Z,15.20
2018-01-10T03:30:54.032Z,15.60
2018-01-10T03:31:54.008Z,14.80
2018-01-10T03:32:53.987Z,15.80
2018-01-10T03:33:53.965Z,16.30
2018-01-10T03:34:53.945Z,16.00
2018-01-10T03:35:53.921Z,16.10
2018-01-10T03:36:53.900Z,16.20
2018-01-10T03:37:53.878Z,15.80
2018-01-10T03:38:54.188Z,15.80
2018-01-10T03:39:53.835Z,15.80
2018-01-10T03:40:53.814Z,15.60
2018-01-10T03:41:53.816Z,15.00
2018-01-10T03:42:53.770Z,15.40
2018-01-10T03:43:53.747Z,15.40
2018-01-10T03:44:53.729Z,15.20
2018-01-10T03:45:53.705Z,16.10
2018-01-10T03:46:53.684Z,15.10
2018-01-10T03:47:53.672Z,17.50
2018-01-10T03:48:53.649Z,15.50
2018-01-10T03:49:53.619Z,15.60
2018-01-10T03:50:53.597Z,16.40
2018-01-10T03:51:53.574Z,15.60
2018-01-10T03:52:53.553Z,14.80
2018-01-10T03:53:53.538Z,16.60
2018-01-10T03:54:53.514Z,15.70
2018-01-10T03:55:53.492Z,15.90
2018-01-10T03:56:53.472Z,16.00
2018-01-10T03:57:53.445Z,15.60
2018-01-10T03:58:53.425Z,15.70
2018-01-10T03:59:53.401Z,15.80
2018-01-10T04:00:53.379Z,16.10
2018-01-10T04:01:53.357Z,15.90
2018-01-10T04:02:53.335Z,15.50
2018-01-10T04:03:53.359Z,15.00
2018-01-10T04:04:53.292Z,15.10
2018-01-10T04:05:53.272Z,15.40
2018-01-10T04:06:53.286Z,15.50
2018-01-10T04:07:53.226Z,16.10
2018-01-10T04:08:53.203Z,15.20
2018-01-10T04:09:53.181Z,16.70
2018-01-10T04:10:53.161Z,16.20
2018-01-10T04:11:53.141Z,16.00
2018-01-10T04:12:53.115Z,15.90
2018-01-10T04:13:53.093Z,15.60
2018-01-10T04:14:53.124Z,15.50
2018-01-10T04:15:53.050Z,14.70
2018-01-10T04:16:53.032Z,15.20
2018-01-10T04:17:53.011Z,15.40
2018-01-10T04:18:52.985Z,15.40
2018-01-10T04:19:52.962Z,14.90
2018-01-10T04:20:52.939Z,15.10
2018-01-10T04:21:52.924Z,15.10
2018-01-10T04:22:52.899Z,14.80
2018-01-10T04:23:52.874Z,15.40
2018-01-10T04:24:52.852Z,14.70
2018-01-10T04:25:52.829Z,15.40
2018-01-10T04:26:52.815Z,15.10
2018-01-10T04:27:52.789Z,14.60
2018-01-10T04:28:52.763Z,15.90
2018-01-10T04:29:52.740Z,14.90
2018-01-10T04:30:52.721Z,15.90
2018-01-10T04:31:52.698Z,15.60
2018-01-10T04:32:52.685Z,15.20
2018-01-10T04:33:52.666Z,15.20
2018-01-10T04:34:52.633Z,15.00
2018-01-10T04:35:52.608Z,15.50
2018-01-10T04:36:52.651Z,14.90
2018-01-10T04:37:52.566Z,15.30
2018-01-10T04:38:52.546Z,15.60
2018-01-10T04:39:52.526Z,15.80
2018-01-10T04:40:52.499Z,15.50
2018-01-10T04:41:52.478Z,15.70
2018-01-10T04:42:52.458Z,15.90
2018-01-10T04:43:52.444Z,15.90
2018-01-10T04:44:52.412Z,15.40
2018-01-10T04:45:52.391Z,15.10
2018-01-10T04:46:52.367Z,15.80
2018-01-10T04:47:52.347Z,15.20
2018-01-10T04:48:52.325Z,15.20
2018-01-10T04:49:52.300Z,15.70
2018-01-10T04:50:52.280Z,15.20
2018-01-10T04:51:52.255Z,16.00
2018-01-10T04:52:52.252Z,15.20
2018-01-10T04:53:52.216Z,15.40
2018-01-10T04:54:52.193Z,15.20
2018-01-10T04:55:52.169Z,15.10
2018-01-10T04:56:52.147Z,15.50
2018-01-10T04:57:52.127Z,15.20
2018-01-10T04:58:52.197Z,15.10
2018-01-10T04:59:52.084Z,15.10
2018-01-10T05:00:52.063Z,16.40
2018-01-10T05:01:52.050Z,15.00
2018-01-10T05:02:52.027Z,15.00
2018-01-10T05:03:51.993Z,15.80
2018-01-10T05:04:51.982Z,15.40
2018-01-10T05:05:51.954Z,16.10
2018-01-10T05:06:51.956Z,15.70
2018-01-10T05:07:51.908Z,15.40
2018-01-10T05:08:51.896Z,15.30
2018-01-10T05:09:52.019Z,15.30
2018-01-10T05:10:51.847Z,16.10
2018-01-10T05:11:51.824Z,14.60
2018-01-10T05:12:51.803Z,14.90
2018-01-10T05:13:51.799Z,14.40
2018-01-10T05:14:51.757Z,15.00
2018-01-10T05:15:51.734Z,15.40
2018-01-10T05:16:51.714Z,15.50
2018-01-10T05:17:51.693Z,15.60
2018-01-10T05:18:51.680Z,16.20
2018-01-10T05:19:51.651Z,15.10
2018-01-10T05:20:51.626Z,14.90
2018-01-10T05:21:51.606Z,15.70
2018-01-10T05:22:51.589Z,15.70
2018-01-10T05:23:51.564Z,15.20
2018-01-10T05:24:51.541Z,15.30
2018-01-10T05:25:51.521Z,15.70
2018-01-10T05:26:51.508Z,14.90
2018-01-10T05:27:51.474Z,14.70
2018-01-10T05:28:51.476Z,15.50
2018-01-10T05:29:51.441Z,15.00
2018-01-10T05:30:51.411Z,15.20
2018-01-10T05:31:51.403Z,16.00
2018-01-10T05:32:51.369Z,15.80
2018-01-10T05:33:51.350Z,15.10
2018-01-10T05:34:51.380Z,15.70
2018-01-10T05:35:51.301Z,15.70
2018-01-10T05:36:51.281Z,15.50
2018-01-10T05:37:51.261Z,15.00
2018-01-10T05:38:51.239Z,15.30
2018-01-10T05:39:51.224Z,15.00
2018-01-10T05:40:51.198Z,15.50
2018-01-10T05:41:51.178Z,16.40
2018-01-10T05:42:51.158Z,15.50
2018-01-10T05:43:51.131Z,15.70
2018-01-10T05:44:51.118Z,15.90
2018-01-10T05:45:51.090Z,15.70
2018-01-10T05:46:51.068Z,16.20
2018-01-10T05:47:51.050Z,15.40
2018-01-10T05:48:51.027Z,16.10
2018-01-10T05:49:51.003Z,15.80
2018-01-10T05:50:50.987Z,15.90
2018-01-10T05:51:50.978Z,14.90
2018-01-10T05:52:50.939Z,15.60
2018-01-10T05:53:50.919Z,15.60
2018-01-10T05:54:50.907Z,15.50
2018-01-10T05:55:50.885Z,16.10
2018-01-10T05:56:50.857Z,15.60
2018-01-10T05:57:50.843Z,15.10
2018-01-10T05:58:50.817Z,15.70
2018-01-10T05:59:50.840Z,16.00
2018-01-10T06:00:50.771Z,16.20
2018-01-10T06:01:50.761Z,15.20
2018-01-10T06:02:50.727Z,16.00
2018-01-10T06:03:50.707Z,16.00
2018-01-10T06:04:50.696Z,15.80
2018-01-10T06:05:50.666Z,16.00
2018-01-10T06:06:50.649Z,15.90
2018-01-10T06:07:50.626Z,15.50
2018-01-10T06:08:50.612Z,15.80
2018-01-10T06:09:50.590Z,16.50
2018-01-10T06:10:50.572Z,14.80
2018-01-10T06:11:50.540Z,15.00
2018-01-10T06:12:50.526Z,15.80
2018-01-10T06:13:50.496Z,15.60
2018-01-10T06:14:50.477Z,15.90
2018-01-10T06:15:50.454Z,15.00
2018-01-10T06:16:50.537Z,15.40
2018-01-10T06:17:50.414Z,15.80
2018-01-10T06:18:50.394Z,15.90
2018-01-10T06:19:50.373Z,15.70
2018-01-10T06:20:50.352Z,17.30
2018-01-10T06:21:50.333Z,15.60
2018-01-10T06:22:50.307Z,15.90
2018-01-10T06:23:50.419Z,16.30
2018-01-10T06:24:50.264Z,15.40
2018-01-10T06:25:50.245Z,15.30
2018-01-10T06:26:50.272Z,15.80
2018-01-10T06:27:50.200Z,16.50
2018-01-10T06:28:50.181Z,15.00
2018-01-10T06:29:50.170Z,16.20
2018-01-10T06:30:50.141Z,15.90
2018-01-10T06:31:50.121Z,15.90
2018-01-10T06:32:50.111Z,15.60
2018-01-10T06:33:50.076Z,16.20
2018-01-10T06:34:50.092Z,16.50
2018-01-10T06:35:50.034Z,17.70
2018-01-10T06:36:50.014Z,16.90
2018-01-10T06:37:50.002Z,15.80
2018-01-10T06:38:49.980Z,17.70
2018-01-10T06:39:49.959Z,17.20
2018-01-10T06:40:49.929Z,19.20
2018-01-10T06:41:49.909Z,16.70
2018-01-10T06:42:49.897Z,16.50
2018-01-10T06:43:49.869Z,16.20
2018-01-10T06:44:49.848Z,16.20
2018-01-10T06:45:49.829Z,16.00
2018-01-10T06:46:49.809Z,15.40
2018-01-10T06:47:49.789Z,17.00
2018-01-10T06:48:49.760Z,16.20
2018-01-10T06:49:49.754Z,16.70
2018-01-10T06:50:49.722Z,15.20
2018-01-10T06:51:49.698Z,14.90
2018-01-10T06:52:49.677Z,16.20
2018-01-10T06:53:49.665Z,16.30
2018-01-10T06:54:49.644Z,16.40
2018-01-10T06:55:49.620Z,15.40
2018-01-10T06:56:49.731Z,16.00
2018-01-10T06:57:49.587Z,15.90
2018-01-10T06:58:49.562Z,15.10
2018-01-10T06:59:49.546Z,15.60
2018-01-10T07:00:49.514Z,15.40
2018-01-10T07:01:49.493Z,16.30
2018-01-10T07:02:49.472Z,15.40
2018-01-10T07:03:49.450Z,15.70
2018-01-10T07:04:49.432Z,15.60
2018-01-10T07:05:49.409Z,16.50
2018-01-10T07:06:49.396Z,16.00
2018-01-10T07:07:49.369Z,15.90
2018-01-10T07:08:49.348Z,15.10
2018-01-10T07:09:49.340Z,14.60
2018-01-10T07:10:49.306Z,14.60
2018-01-10T07:11:49.285Z,15.80
2018-01-10T07:12:49.265Z,15.40
2018-01-10T07:13:49.245Z,15.50
2018-01-10T07:14:49.223Z,14.30
2018-01-10T07:15:49.269Z,14.40
2018-01-10T07:16:49.180Z,14.30
2018-01-10T07:17:49.161Z,14.60
2018-01-10T07:18:49.206Z,14.80
2018-01-10T07:19:49.117Z,15.10
2018-01-10T07:20:49.096Z,14.30
2018-01-10T07:21:49.080Z,14.80
2018-01-10T07:22:49.057Z,14.50
2018-01-10T07:23:49.034Z,15.10
2018-01-10T07:24:49.015Z,14.80
2018-01-10T07:25:48.998Z,14.20
2018-01-10T07:26:48.973Z,14.10
2018-01-10T07:27:48.956Z,15.40
2018-01-10T07:28:48.929Z,15.50
2018-01-10T07:29:48.959Z,15.00
2018-01-10T07:30:48.895Z,14.80
2018-01-10T07:31:48.872Z,15.30
2018-01-10T07:32:48.852Z,15.00
2018-01-10T07:33:48.823Z,15.60
2018-01-10T07:34:48.801Z,14.90
2018-01-10T07:35:48.779Z,15.40
2018-01-10T07:36:48.758Z,15.20
2018-01-10T07:37:48.738Z,14.80
2018-01-10T07:38:48.714Z,15.00
2018-01-10T07:39:48.693Z,15.10
2018-01-10T07:40:48.672Z,14.50
2018-01-10T07:41:48.660Z,15.20
2018-01-10T07:42:48.631Z,15.00
2018-01-10T07:43:48.609Z,14.70
2018-01-10T07:44:48.588Z,13.90
2018-01-10T07:45:48.567Z,14.10
2018-01-10T07:46:48.545Z,14.70
2018-01-10T07:47:48.520Z,14.70
2018-01-10T07:48:48.590Z,16.00
2018-01-10T07:49:48.481Z,15.00
2018-01-10T07:50:48.485Z,15.30
2018-01-10T07:51:48.480Z,14.50
2018-01-10T07:52:48.415Z,14.90
2018-01-10T07:53:48.396Z,15.00
2018-01-10T07:54:48.384Z,14.20
2018-01-10T07:55:48.352Z,14.80
2018-01-10T07:56:48.329Z,14.80
2018-01-10T07:57:48.321Z,14.70
2018-01-10T07:58:48.292Z,14.40
2018-01-10T07:59:48.265Z,14.80
2018-01-10T08:00:48.243Z,15.30
2018-01-10T08:01:48.225Z,14.80
2018-01-10T08:02:48.205Z,14.40
2018-01-10T08:03:48.182Z,14.20
2018-01-10T08:04:48.159Z,14.80
2018-01-10T08:05:48.139Z,14.20
2018-01-10T08:06:48.137Z,14.00
2018-01-10T08:07:48.099Z,14.50
2018-01-10T08:08:48.075Z,14.00
2018-01-10T08:09:48.054Z,14.50
2018-01-10T08:10:48.142Z,15.20
2018-01-10T08:11:48.011Z,14.40
2018-01-10T08:12:47.990Z,14.00
2018-01-10T08:13:47.995Z,13.90
2018-01-10T08:14:47.955Z,14.40
2018-01-10T08:15:47.928Z,14.60
2018-01-10T08:16:47.917Z,14.00
2018-01-10T08:17:47.887Z,14.30
2018-01-10T08:18:47.936Z,14.50
2018-01-10T08:19:47.851Z,14.60
2018-01-10T08:20:47.829Z,13.60
2018-01-10T08:21:47.821Z,13.80
2018-01-10T08:22:47.781Z,14.00
2018-01-10T08:23:47.758Z,13.10
2018-01-10T08:24:47.745Z,13.50
2018-01-10T08:25:47.718Z,13.70
2018-01-10T08:26:47.698Z,13.10
2018-01-10T08:27:47.676Z,13.00
2018-01-10T08:28:47.667Z,13.70
2018-01-10T08:29:47.637Z,12.90
2018-01-10T08:30:47.623Z,12.80
2018-01-10T08:31:47.604Z,13.10
2018-01-10T08:32:47.628Z,13.50
2018-01-10T08:33:47.556Z,12.90
2018-01-10T08:34:47.545Z,13.40
2018-01-10T08:35:47.520Z,12.20
2018-01-10T08:36:47.492Z,12.40
2018-01-10T08:37:47.470Z,13.10
2018-01-10T08:38:47.449Z,12.70
2018-01-10T08:39:47.426Z,13.00
2018-01-10T08:40:47.559Z,12.80
2018-01-10T08:41:47.389Z,12.80
2018-01-10T08:42:47.381Z,12.70
2018-01-10T08:43:47.382Z,12.40
2018-01-10T08:44:47.326Z,12.20
2018-01-10T08:45:47.318Z,13.20
2018-01-10T08:46:47.289Z,12.10
2018-01-10T08:47:47.263Z,13.00
2018-01-10T08:48:47.247Z,12.70
2018-01-10T08:49:47.225Z,12.60
2018-01-10T08:50:47.204Z,12.70
2018-01-10T08:51:47.191Z,11.70
2018-01-10T08:52:47.164Z,12.50
2018-01-10T08:53:47.145Z,12.20
2018-01-10T08:54:47.125Z,11.60
2018-01-10T08:55:47.105Z,11.90
2018-01-10T08:56:47.090Z,11.90
2018-01-10T08:57:47.062Z,11.40
2018-01-10T08:58:47.044Z,11.40
2018-01-10T08:59:47.029Z,11.50
2018-01-10T09:00:47.005Z,11.20
2018-01-10T09:01:46.984Z,11.60
2018-01-10T09:02:47.095Z,11.60
2018-01-10T09:03:46.944Z,11.10
2018-01-10T09:04:46.928Z,10.80
2018-01-10T09:05:46.905Z,12.20
2018-01-10T09:06:46.892Z,11.50
2018-01-10T09:07:46.862Z,11.70
2018-01-10T09:08:46.842Z,11.40
2018-01-10T09:09:46.845Z,11.10
2018-01-10T09:10:46.826Z,11.40
2018-01-10T09:11:46.782Z,10.80
2018-01-10T09:12:46.762Z,11.50
2018-01-10T09:13:46.852Z,11.20
2018-01-10T09:14:46.722Z,10.90
2018-01-10T09:15:46.704Z,11.00
2018-01-10T09:16:46.692Z,12.00
2018-01-10T09:17:46.661Z,10.80
2018-01-10T09:18:46.644Z,11.00
2018-01-10T09:19:46.623Z,11.70
2018-01-10T09:20:46.610Z,11.00
2018-01-10T09:21:46.582Z,11.20
2018-01-10T09:22:46.563Z,11.00
2018-01-10T09:23:46.542Z,10.70
2018-01-10T09:24:46.522Z,10.60
2018-01-10T09:25:46.511Z,10.10
2018-01-10T09:26:46.486Z,11.00
2018-01-10T09:27:46.461Z,11.80
2018-01-10T09:28:46.442Z,11.00
2018-01-10T09:29:46.424Z,10.80
2018-01-10T09:30:46.403Z,10.60
2018-01-10T09:31:46.382Z,10.40
2018-01-10T09:32:46.469Z,10.70
2018-01-10T09:33:46.343Z,10.70
2018-01-10T09:34:46.321Z,10.60
2018-01-10T09:35:46.351Z,10.80
2018-01-10T09:36:46.305Z,9.90
2018-01-10T09:37:46.260Z,10.10
2018-01-10T09:38:46.242Z,9.30
2018-01-10T09:39:46.228Z,10.30
2018-01-10T09:40:46.205Z,10.20
2018-01-10T09:41:46.178Z,10.00
2018-01-10T09:42:46.158Z,9.80
2018-01-10T09:43:46.147Z,10.10
2018-01-10T09:44:46.116Z,10.40
2018-01-10T09:45:46.099Z,10.50
2018-01-10T09:46:46.076Z,10.30
2018-01-10T09:47:46.055Z,10.50
2018-01-10T09:48:46.035Z,10.20
2018-01-10T09:49:46.016Z,9.80
2018-01-10T09:50:45.994Z,10.40
2018-01-10T09:51:45.982Z,9.90
2018-01-10T09:52:45.963Z,10.50
2018-01-10T09:53:45.937Z,10.60
2018-01-10T09:54:45.914Z,10.30
2018-01-10T09:55:45.894Z,10.60
2018-01-10T09:56:45.874Z,10.10
2018-01-10T09:57:45.848Z,10.60
2018-01-10T09:58:45.838Z,10.20
2018-01-10T09:59:45.817Z,11.10
2018-01-10T10:00:45.788Z,10.40
2018-01-10T10:01:45.770Z,10.30
2018-01-10T10:02:45.860Z,10.30
2018-01-10T10:03:45.730Z,11.60
2018-01-10T10:04:45.708Z,11.20
2018-01-10T10:05:45.720Z,11.00
2018-01-10T10:06:45.677Z,11.00
2018-01-10T10:07:45.649Z,11.10
2018-01-10T10:08:45.646Z,10.80
2018-01-10T10:09:45.606Z,10.80
2018-01-10T10:10:45.589Z,10.80
2018-01-10T10:11:45.565Z,11.10
2018-01-10T10:12:45.548Z,10.90
2018-01-10T10:13:45.535Z,10.80
2018-01-10T10:14:45.504Z,10.70
2018-01-10T10:15:45.482Z,11.00
2018-01-10T10:16:45.462Z,10.50
2018-01-10T10:17:45.444Z,11.00
2018-01-10T10:18:45.424Z,10.50
2018-01-10T10:19:45.401Z,10.50
2018-01-10T10:20:45.417Z,11.40
2018-01-10T10:21:45.369Z,10.50
2018-01-10T10:22:45.340Z,11.00
2018-01-10T10:23:45.321Z,10.40
2018-01-10T10:24:45.422Z,10.60
2018-01-10T10:25:45.278Z,10.30
2018-01-10T10:26:45.261Z,10.30
2018-01-10T10:27:45.296Z,10.40
2018-01-10T10:28:45.222Z,10.50
2018-01-10T10:29:45.201Z,9.90
2018-01-10T10:30:45.223Z,9.70
2018-01-10T10:31:45.172Z,10.40
2018-01-10T10:32:45.142Z,10.20
2018-01-10T10:33:45.119Z,9.90
2018-01-10T10:34:45.101Z,10.20
2018-01-10T10:35:45.081Z,9.90
2018-01-10T10:36:45.072Z,9.80
2018-01-10T10:37:45.042Z,9.30
2018-01-10T10:38:45.028Z,9.50
2018-01-10T10:39:45.004Z,9.90
2018-01-10T10:40:44.982Z,8.90
2018-01-10T10:41:44.964Z,16.40
2018-01-10T10:42:44.949Z,9.40
2018-01-10T10:43:44.921Z,9.10
2018-01-10T10:44:44.921Z,8.80
2018-01-10T10:45:44.883Z,8.20
2018-01-10T10:46:44.868Z,9.00
2018-01-10T10:47:44.847Z,9.30
2018-01-10T10:48:44.823Z,9.10
2018-01-10T10:49:44.807Z,9.50
2018-01-10T10:50:44.800Z,9.00
2018-01-10T10:51:44.763Z,9.30
2018-01-10T10:52:44.743Z,9.20
2018-01-10T10:53:44.721Z,9.60
2018-01-10T10:54:44.870Z,9.10
2018-01-10T10:55:44.691Z,8.90
2018-01-10T10:56:44.665Z,8.60
2018-01-10T10:57:44.658Z,9.50
2018-01-10T10:58:44.626Z,8.70
2018-01-10T10:59:44.615Z,8.70
2018-01-10T11:00:44.605Z,8.80
2018-01-10T11:01:44.568Z,9.20
2018-01-10T11:02:44.549Z,9.10
2018-01-10T11:03:44.529Z,8.70
2018-01-10T11:04:44.508Z,9.80
2018-01-10T11:05:44.505Z,9.20
2018-01-10T11:06:44.479Z,8.70
2018-01-10T11:07:44.450Z,9.20
2018-01-10T11:08:44.427Z,9.10
2018-01-10T11:09:44.418Z,8.40
2018-01-10T11:10:44.399Z,8.80
2018-01-10T11:11:44.370Z,8.50
2018-01-10T11:12:44.358Z,8.40
2018-01-10T11:13:44.334Z,8.30
2018-01-10T11:14:44.313Z,8.30
2018-01-10T11:15:44.302Z,8.70
2018-01-10T11:16:44.362Z,8.10
2018-01-10T11:17:44.254Z,8.70
2018-01-10T11:18:44.234Z,8.60
2018-01-10T11:19:44.232Z,8.60
2018-01-10T11:20:44.194Z,8.90
2018-01-10T11:21:44.173Z,8.90
2018-01-10T11:22:44.163Z,7.90
2018-01-10T11:23:44.135Z,8.50
2018-01-10T11:24:44.112Z,9.70
2018-01-10T11:25:44.094Z,8.00
2018-01-10T11:26:44.074Z,7.50
2018-01-10T11:27:44.055Z,7.90
2018-01-10T11:28:44.035Z,8.40
2018-01-10T11:29:44.018Z,8.00
2018-01-10T11:30:44.000Z,8.70
2018-01-10T11:31:43.976Z,7.60
2018-01-10T11:32:43.971Z,7.50
2018-01-10T11:33:44.191Z,8.30
2018-01-10T11:34:43.922Z,7.40
2018-01-10T11:35:43.902Z,7.70
2018-01-10T11:36:43.881Z,8.00
2018-01-10T11:37:43.871Z,7.40
2018-01-10T11:38:43.844Z,9.60
2018-01-10T11:39:43.826Z,8.00
2018-01-10T11:40:43.805Z,7.90
2018-01-10T11:41:43.785Z,7.60
2018-01-10T11:42:43.781Z,7.00
2018-01-10T11:43:43.744Z,7.00
2018-01-10T11:44:43.730Z,7.20
2018-01-10T11:45:43.750Z,6.50
2018-01-10T11:46:43.712Z,7.20
2018-01-10T11:47:43.674Z,6.40
2018-01-10T11:48:43.652Z,6.20
2018-01-10T11:49:43.634Z,6.20
2018-01-10T11:50:43.613Z,5.90
2018-01-10T11:51:43.594Z,6.60
2018-01-10T11:52:43.578Z,10.90
2018-01-10T11:53:43.558Z,8.90
2018-01-10T11:54:43.539Z,6.40
2018-01-10T11:55:43.522Z,6.70
2018-01-10T11:56:43.500Z,5.20
2018-01-10T11:57:43.482Z,5.00
2018-01-10T11:58:43.463Z,4.50
2018-01-10T11:59:43.447Z,4.90
2018-01-10T12:00:43.443Z,4.70
2018-01-10T12:01:43.440Z,5.00
2018-01-10T12:02:43.390Z,4.40
2018-01-10T12:03:43.373Z,4.30
2018-01-10T12:04:43.354Z,4.70
2018-01-10T12:05:43.465Z,4.50
2018-01-10T12:06:43.340Z,5.20
2018-01-10T12:07:43.308Z,4.30
2018-01-10T12:08:43.293Z,4.00
2018-01-10T12:09:43.267Z,3.90
2018-01-10T12:10:43.246Z,4.00
2018-01-10T12:11:43.298Z,3.80
2018-01-10T12:12:43.225Z,3.60
2018-01-10T12:13:43.192Z,3.80
2018-01-10T12:14:43.175Z,3.20
2018-01-10T12:15:43.155Z,3.40
2018-01-10T12:16:43.137Z,3.90
2018-01-10T12:17:43.118Z,3.40
2018-01-10T12:18:43.105Z,3.50
2018-01-10T12:19:43.098Z,3.00
2018-01-10T12:20:43.066Z,2.90
2018-01-10T12:21:43.050Z,3.40
2018-01-10T12:22:43.042Z,3.20
2018-01-10T12:23:43.014Z,3.40
2018-01-10T12:24:42.993Z,3.20
2018-01-10T12:25:42.974Z,2.70
2018-01-10T12:26:42.956Z,3.20
2018-01-10T12:27:42.952Z,3.30
2018-01-10T12:28:42.927Z,3.20
2018-01-10T12:29:42.903Z,3.50
2018-01-10T12:30:42.885Z,3.80
2018-01-10T12:31:42.866Z,3.10
2018-01-10T12:32:42.850Z,3.40
2018-01-10T12:33:42.833Z,2.90
2018-01-10T12:34:42.815Z,3.50
2018-01-10T12:35:42.825Z,3.60
2018-01-10T12:36:42.778Z,2.90
2018-01-10T12:37:42.764Z,3.30
2018-01-10T12:38:42.763Z,3.20
2018-01-10T12:39:42.731Z,3.00
2018-01-10T12:40:42.718Z,3.20
2018-01-10T12:41:42.702Z,2.90
2018-01-10T12:42:42.677Z,3.10
2018-01-10T12:43:42.659Z,3.20
2018-01-10T12:44:42.637Z,3.00
2018-01-10T12:45:42.626Z,3.30
2018-01-10T12:46:42.602Z,3.50
2018-01-10T12:47:42.596Z,3.10
2018-01-10T12:48:42.574Z,3.50
2018-01-10T12:49:42.546Z,3.40
2018-01-10T12:50:42.541Z,3.30
2018-01-10T12:51:42.515Z,3.10
2018-01-10T12:52:42.497Z,2.90
2018-01-10T12:53:42.488Z,3.30
2018-01-10T12:54:42.481Z,3.50
2018-01-10T12:55:42.532Z,3.70
2018-01-10T12:56:42.425Z,3.00
2018-01-10T12:57:42.488Z,3.20